Terminal Aerodrome Forecast
Issued by NWS

Home | Current Version | Previous Version | Text Only | Print | Product List | Glossary On
Versions: 1 2 3 4 5 6 7 8 9 10 11 12 13
000
FTAK31 PAJN 180500
TAFAWG
TAF
PAWG 180520Z 1806/1906 14006KT P6SM SCT035 BKN070
     FM181000 14010KT P6SM -RA SCT040 OVC050
     FM181600 12007KT P6SM VCSH BKN050 OVC080
     FM190300 13009KT P6SM -RA BKN035 OVC050
      AMD LTD TO CLD VIS AND WIND 1806/1815=

USA.gov is the U.S. government's official web portal to all federal, state and local government web resources and services.